createdAt,value
2023-01-05T00:08:04.496Z,97826.63
2023-01-05T00:10:39.762Z,97833.66
2023-01-05T00:13:14.497Z,97830.88
2023-01-05T00:15:47.787Z,97812.94
2023-01-05T00:18:26.513Z,97813.06
2023-01-05T00:21:02.177Z,97813.91
2023-01-05T00:32:53.468Z,97799.56
2023-01-05T00:35:35.523Z,97810.06
2023-01-05T00:38:09.427Z,97808.19
2023-01-05T00:40:45.459Z,97809.88
2023-01-05T00:43:18.870Z,97813.47
2023-01-05T00:45:52.536Z,97808.19
2023-01-05T00:59:31.509Z,97785.75
2023-01-05T01:02:05.137Z,97795.44
2023-01-05T01:04:44.510Z,97791.81
2023-01-05T01:07:17.774Z,97791.81
2023-01-05T01:09:51.476Z,97813.81
2023-01-05T01:12:24.775Z,97797.78
2023-01-05T01:15:00.495Z,97787.28
2023-01-05T01:28:10.492Z,97818.16
2023-01-05T01:30:45.723Z,97828.69
2023-01-05T01:33:19.491Z,97816.25
2023-01-05T01:35:52.752Z,97830.41
2023-01-05T01:38:26.512Z,97819.66
2023-01-05T01:40:59.973Z,97823.28
2023-01-05T01:53:56.441Z,97812.41
2023-01-05T01:56:43.483Z,97843.25
2023-01-05T01:59:18.281Z,97824.75
2023-01-05T02:01:52.630Z,97844.09
2023-01-05T02:04:27.111Z,97839.72
2023-01-05T02:21:06.106Z,97832.63
2023-01-05T02:24:31.533Z,97816.78
2023-01-05T02:27:47.451Z,97814.34
2023-01-05T02:30:59.917Z,97817.19
2023-01-05T02:33:59.458Z,97816.47
2023-01-05T02:47:15.467Z,97789.78
2023-01-05T02:49:48.971Z,97775.03
2023-01-05T02:52:22.466Z,97779.28
2023-01-05T02:55:02.364Z,97776.72
2023-01-05T02:57:52.456Z,97775.91
2023-01-05T03:00:38.120Z,97775.25
2023-01-05T03:13:39.427Z,97776.09
2023-01-05T03:16:30.514Z,97790.97
2023-01-05T03:19:15.393Z,97766.22
2023-01-05T03:22:01.508Z,97779.69
2023-01-05T03:24:42.158Z,97780.56
2023-01-05T03:41:09.471Z,97798.38
2023-01-05T03:43:46.195Z,97805.50
2023-01-05T03:46:28.530Z,97801.03
2023-01-05T03:49:03.262Z,97805.41
2023-01-05T03:51:41.600Z,97805.41
2023-01-05T03:54:16.161Z,97822.16
2023-01-05T04:07:07.444Z,97828.34
2023-01-05T04:09:47.456Z,97834.72
2023-01-05T04:12:21.296Z,97826.75
2023-01-05T04:14:56.459Z,97829.47
2023-01-05T04:17:29.758Z,97827.78
2023-01-05T04:20:03.489Z,97822.56
2023-01-05T04:33:32.489Z,97836.13
2023-01-05T04:36:08.207Z,97846.75
2023-01-05T04:38:42.484Z,97850.38
2023-01-05T04:41:15.795Z,97857.38
2023-01-05T04:43:54.440Z,97854.81
2023-01-05T04:46:28.281Z,97854.72
2023-01-05T04:49:05.447Z,97861.84
2023-01-05T05:02:20.608Z,97870.09
2023-01-05T05:04:56.127Z,97860.44
2023-01-05T05:07:29.488Z,97864.78
2023-01-05T05:10:05.558Z,97855.06
2023-01-05T05:12:39.454Z,97857.78
2023-01-05T05:15:13.549Z,97872.75
2023-01-05T05:28:08.507Z,97892.28
2023-01-05T05:30:48.514Z,97884.31
2023-01-05T05:33:21.816Z,97891.44
2023-01-05T05:35:55.470Z,97901.94
2023-01-05T05:38:28.702Z,97899.41
2023-01-05T05:41:02.474Z,97894.94
2023-01-05T05:54:14.439Z,97878.81
2023-01-05T05:56:47.740Z,97889.44
2023-01-05T05:59:23.146Z,97886.03
2023-01-05T06:01:56.924Z,97886.88
2023-01-05T06:04:30.457Z,97886.03
2023-01-05T06:07:03.820Z,97889.63
2023-01-05T06:09:39.484Z,97896.63
2023-01-05T06:22:49.447Z,97906.41
2023-01-05T06:25:24.661Z,97907.25
2023-01-05T06:27:58.426Z,97905.66
2023-01-05T06:30:32.144Z,97898.56
2023-01-05T06:33:05.463Z,97916.16
2023-01-05T06:35:38.708Z,97905.47
2023-01-05T06:48:28.402Z,97908.31
2023-01-05T06:51:08.459Z,97895.91
2023-01-05T06:53:41.706Z,97909.91
2023-01-05T06:56:15.461Z,97914.47
2023-01-05T06:58:48.827Z,97926.78
2023-01-05T07:01:23.814Z,97932.06
2023-01-05T07:14:36.468Z,97941.03
2023-01-05T07:17:10.163Z,97934.84
2023-01-05T07:19:43.439Z,97951.63
2023-01-05T07:22:16.887Z,97945.56
2023-01-05T07:24:50.460Z,97953.53
2023-01-05T07:27:23.809Z,97956.28
2023-01-05T07:29:59.430Z,97959.78
2023-01-05T07:43:10.444Z,97971.16
2023-01-05T07:45:45.721Z,97967.72
2023-01-05T07:48:23.531Z,97963.09
2023-01-05T07:51:00.532Z,97970.09
2023-01-05T07:53:44.601Z,97970.22
2023-01-05T07:56:17.681Z,97980.59
2023-01-05T08:09:07.401Z,97973.59
2023-01-05T08:11:47.427Z,97984.13
2023-01-05T08:14:20.945Z,97992.16
2023-01-05T08:16:54.434Z,98004.50
2023-01-05T08:19:27.667Z,97979.78
2023-01-05T08:35:47.461Z,98011.31
2023-01-05T08:38:21.203Z,98018.31
2023-01-05T08:40:54.428Z,98011.41
2023-01-05T08:43:27.859Z,98028.94
2023-01-05T08:46:01.452Z,98038.72
2023-01-05T08:48:34.698Z,98040.41
2023-01-05T08:51:10.421Z,98031.59
2023-01-05T09:01:03.531Z,98060.59
2023-01-05T09:03:43.513Z,98060.59
2023-01-05T09:06:18.779Z,98058.78
2023-01-05T09:08:58.817Z,98072.94
2023-01-05T09:11:31.722Z,98060.59
2023-01-05T09:14:07.517Z,98068.66
2023-01-05T09:27:51.413Z,98080.91
2023-01-05T09:30:24.680Z,98093.19
2023-01-05T09:32:58.430Z,98092.25
2023-01-05T09:35:31.835Z,98075.19
2023-01-05T09:38:05.440Z,98076.13
2023-01-05T09:40:43.295Z,98084.75
2023-01-05T09:57:09.891Z,98087.69
2023-01-05T09:59:48.161Z,98093.72
2023-01-05T10:05:14.188Z,98085.69
2023-01-05T10:07:55.438Z,98064.53
2023-01-05T10:10:46.997Z,98095.56
2023-01-05T10:24:11.383Z,98101.53
2023-01-05T10:30:12.887Z,98113.09
2023-01-05T10:33:25.471Z,98116.69
2023-01-05T10:36:14.604Z,98115.91
2023-01-05T10:49:17.364Z,98108.28
2023-01-05T10:51:58.432Z,98119.94
2023-01-05T10:54:38.687Z,98116.31
2023-01-05T10:57:41.409Z,98121.72
2023-01-05T11:00:18.165Z,98127.91
2023-01-05T11:15:49.987Z,98135.09
2023-01-05T11:18:31.683Z,98130.53
2023-01-05T11:21:17.409Z,98140.41
2023-01-05T11:23:54.228Z,98133.09
2023-01-05T11:26:39.397Z,98140.03
2023-01-05T11:29:14.949Z,98142.34
2023-01-05T11:41:34.420Z,98150.59
2023-01-05T11:44:27.411Z,98137.31
2023-01-05T11:47:06.283Z,98133.94
2023-01-05T11:49:46.417Z,98144.72
2023-01-05T11:52:33.215Z,98136.59
2023-01-05T11:55:40.435Z,98142.84
2023-01-05T12:09:04.467Z,98144.56
2023-01-05T12:11:49.016Z,98144.56
2023-01-05T12:14:53.436Z,98156.97
2023-01-05T12:17:42.929Z,98158.88
2023-01-05T12:20:59.636Z,98158.97
2023-01-05T12:37:43.679Z,98182.09
2023-01-05T12:40:47.403Z,98178.69
2023-01-05T12:43:44.791Z,98192.91
2023-01-05T12:46:41.423Z,98195.97
2023-01-05T12:49:23.590Z,98216.38
2023-01-05T13:02:40.552Z,98201.28
2023-01-05T13:05:29.398Z,98207.72
2023-01-05T13:08:15.446Z,98211.34
2023-01-05T13:11:13.398Z,98199.75
2023-01-05T13:13:52.200Z,98204.97
2023-01-05T13:16:38.416Z,98213.78
2023-01-05T13:29:56.425Z,98216.66
2023-01-05T13:32:56.655Z,98214.94
2023-01-05T13:36:05.373Z,98219.47
2023-01-05T13:39:12.713Z,98217.03
2023-01-05T13:56:00.383Z,98255.69
2023-01-05T13:58:42.081Z,98252.31
2023-01-05T14:01:26.439Z,98247.94
2023-01-05T14:04:01.034Z,98248.22
2023-01-05T14:06:38.409Z,98252.84
2023-01-05T14:09:21.348Z,98255.78
2023-01-05T14:22:46.334Z,98281.91
2023-01-05T14:25:57.382Z,98288.94
2023-01-05T14:28:44.780Z,98299.34
2023-01-05T14:31:53.403Z,98299.34
2023-01-05T14:34:27.509Z,98315.06
2023-01-05T14:50:46.396Z,98351.56
2023-01-05T14:53:42.634Z,98345.59
2023-01-05T14:56:27.382Z,98359.09
2023-01-05T14:59:20.559Z,98364.41
2023-01-05T15:02:06.562Z,98364.59
2023-01-05T15:04:41.891Z,98364.59
2023-01-05T15:18:15.349Z,98387.38
2023-01-05T15:21:43.357Z,98388.59
2023-01-05T15:25:04.947Z,98402.19
2023-01-05T15:28:32.726Z,98398.75
2023-01-05T15:31:30.033Z,98411.94
2023-01-05T15:44:28.336Z,98422.44
2023-01-05T15:47:09.360Z,98416.53
2023-01-05T15:49:43.760Z,98432.63
2023-01-05T15:52:39.397Z,98428.94
2023-01-05T15:55:15.767Z,98426.53
2023-01-05T16:08:59.356Z,98443.97
2023-01-05T16:11:48.375Z,98454.41
2023-01-05T16:14:27.008Z,98464.41
2023-01-05T16:17:13.371Z,98477.66
2023-01-05T16:19:51.700Z,98486.53
2023-01-05T16:22:39.385Z,98493.56
2023-01-05T16:25:17.877Z,98506.03
2023-01-05T16:38:30.328Z,98523.19
2023-01-05T16:41:26.479Z,98528.56
2023-01-05T16:44:01.952Z,98531.44
2023-01-05T16:46:41.383Z,98547.44
2023-01-05T16:49:35.915Z,98549.16
2023-01-05T17:02:53.324Z,98570.03
2023-01-05T17:05:36.350Z,98583.38
2023-01-05T17:08:19.544Z,98585.06
2023-01-05T17:11:00.391Z,98578.22
2023-01-05T17:13:40.976Z,98584.44
2023-01-05T17:16:21.674Z,98591.53
2023-01-05T17:29:38.067Z,98600.94
2023-01-05T17:32:11.713Z,98614.19
2023-01-05T17:34:45.369Z,98609.06
2023-01-05T17:37:18.717Z,98621.38
2023-01-05T17:39:52.368Z,98621.50
2023-01-05T17:42:27.207Z,98618.88
2023-01-05T17:45:02.334Z,98625.09
2023-01-05T17:58:12.343Z,98649.19
2023-01-05T18:06:21.663Z,98644.06
2023-01-05T18:08:55.346Z,98650.13
2023-01-05T18:11:28.576Z,98652.75
2023-01-05T18:24:18.310Z,98666.44
2023-01-05T18:26:58.377Z,98652.28
2023-01-05T18:29:31.666Z,98669.09
2023-01-05T18:32:07.137Z,98662.88
2023-01-05T18:34:40.606Z,98666.44
2023-01-05T18:51:00.318Z,98695.88
2023-01-05T18:53:36.196Z,98700.25
2023-01-05T18:56:13.319Z,98711.59
2023-01-05T18:58:46.696Z,98716.13
2023-01-05T19:01:23.407Z,98714.25
2023-01-05T19:03:56.617Z,98716.13
2023-01-05T19:06:32.334Z,98728.44
2023-01-05T19:16:29.299Z,98728.44
2023-01-05T19:19:13.336Z,98727.56
2023-01-05T19:21:48.527Z,98736.50
2023-01-05T19:24:24.347Z,98738.31
2023-01-05T19:26:57.710Z,98749.91
2023-01-05T19:29:31.306Z,98746.44
2023-01-05T19:32:05.569Z,98749.19
2023-01-05T19:44:55.311Z,98745.66
2023-01-05T19:47:35.328Z,98745.66
2023-01-05T19:50:10.824Z,98747.53
2023-01-05T19:52:44.328Z,98758.13
2023-01-05T19:55:17.579Z,98759.03
2023-01-05T20:11:35.316Z,98783.19
2023-01-05T20:14:13.779Z,98787.78
2023-01-05T20:16:57.344Z,98794.03
2023-01-05T20:19:33.347Z,98791.34
2023-01-05T20:22:09.327Z,98794.84
2023-01-05T20:24:43.107Z,98789.63
2023-01-05T20:37:34.309Z,98801.28
2023-01-05T20:40:17.771Z,98805.63
2023-01-05T20:42:51.612Z,98802.06
2023-01-05T20:45:25.329Z,98809.06
2023-01-05T20:47:58.586Z,98814.38
2023-01-05T20:50:32.327Z,98822.38
2023-01-05T21:03:45.313Z,98837.53
2023-01-05T21:06:20.307Z,98843.69
2023-01-05T21:08:56.333Z,98844.59
2023-01-05T21:11:29.816Z,98841.91
2023-01-05T21:14:04.312Z,98848.13
2023-01-05T21:16:41.571Z,98845.47
2023-01-05T21:30:14.282Z,98853.41
2023-01-05T21:32:54.297Z,98856.06
2023-01-05T21:35:32.375Z,98863.19
2023-01-05T21:38:05.313Z,98862.28
2023-01-05T21:40:39.076Z,98858.72
2023-01-05T21:43:13.359Z,98870.09
2023-01-05T21:45:48.609Z,98863.00
2023-01-05T21:57:37.267Z,98871.94
2023-01-05T22:00:19.300Z,98874.59
2023-01-05T22:02:54.523Z,98875.44
2023-01-05T22:05:28.299Z,98886.94
2023-01-05T22:08:01.777Z,98885.16
2023-01-05T22:10:35.306Z,98882.53
2023-01-05T22:23:47.318Z,98897.47
2023-01-05T22:26:20.784Z,98902.09
2023-01-05T22:28:56.298Z,98903.88
2023-01-05T22:31:31.572Z,98897.75
2023-01-05T22:34:07.292Z,98910.09
2023-01-05T22:36:40.569Z,98911.97
2023-01-05T22:52:52.299Z,98907.53
2023-01-05T22:55:19.062Z,98909.31
2023-01-05T22:57:59.303Z,98912.00
2023-01-05T23:00:32.533Z,98926.16
2023-01-05T23:03:06.302Z,98920.88
2023-01-05T23:05:39.877Z,98918.28
2023-01-05T23:18:31.279Z,98929.88
2023-01-05T23:21:14.291Z,98932.56
2023-01-05T23:23:50.447Z,98929.06
2023-01-05T23:26:24.285Z,98940.38
2023-01-05T23:28:57.898Z,98934.22
2023-01-05T23:31:31.314Z,98936.75
2023-01-05T23:44:43.288Z,98941.91
2023-01-05T23:47:16.534Z,98941.91
2023-01-05T23:49:43.245Z,98933.00
2023-01-05T23:52:24.274Z,98938.22
2023-01-05T23:54:57.612Z,98940.09
